Time;durP1;ratioP1;P1;durP2;ratioP2;P2;SDS_P1;SDS_P2;PMS_P1;PMS_P2;Temp;Humidity;BMP_temperature;BMP_pressure;BME280_temperature;BME280_humidity;BME280_pressure;Samples;Min_cycle;Max_cycle;Signal;HPM_P1;HPM_P2
2023/02/13 00:01:15;;;;;;;2.83;2.63;;;;;;;;;;4973773;28;20038;-78
2023/02/13 00:03:41;;;;;;;5.68;5.05;;;;;;;;;;4973415;28;20034;-77
2023/02/13 00:06:07;;;;;;;5.20;3.67;;;;;;;;;;4973176;28;20053;-77
2023/02/13 00:08:33;;;;;;;6.15;3.88;;;;;;;;;;4973158;28;20030;-77
2023/02/13 00:11:00;;;;;;;5.68;4.22;;;;;;;;;;4990828;28;20390;-78
2023/02/13 00:13:26;;;;;;;7.82;4.45;;;;;;;;;;4990576;28;20141;-78
2023/02/13 00:15:59;;;;;;;6.15;4.63;;;;;;;;;;4990155;28;20027;-78
2023/02/13 00:18:25;;;;;;;15.65;6.70;;;;;;;;;;4972865;28;20050;-77
2023/02/13 00:20:58;;;;;;;17.00;6.57;;;;;;;;;;4972495;28;20137;-77
2023/02/13 00:23:24;;;;;;;9.05;5.70;;;;;;;;;;4972412;28;20042;-76
2023/02/13 00:25:50;;;;;;;7.20;5.30;;;;;;;;;;4989647;28;20035;-76
2023/02/13 00:28:16;;;;;;;13.45;6.47;;;;;;;;;;4988570;28;20038;-77
2023/02/13 00:30:42;;;;;;;7.38;5.78;;;;;;;;;;4988249;28;21083;-76
2023/02/13 00:33:08;;;;;;;8.27;5.18;;;;;;;;;;4930676;28;20584;-76
2023/02/13 00:35:34;;;;;;;10.82;4.20;;;;;;;;;;4989446;28;20030;-76
2023/02/13 00:38:00;;;;;;;8.77;4.82;;;;;;;;;;4956345;28;20622;-76
2023/02/13 00:40:26;;;;;;;6.70;5.00;;;;;;;;;;4972026;28;20042;-76
2023/02/13 00:42:52;;;;;;;8.15;6.80;;;;;;;;;;4972122;28;20513;-76
2023/02/13 00:45:18;;;;;;;5.80;5.10;;;;;;;;;;4956183;28;20088;-75
2023/02/13 00:47:46;;;;;;;7.53;6.82;;;;;;;;;;4956274;28;20042;-76
2023/02/13 00:50:11;;;;;;;6.45;5.50;;;;;;;;;;4956023;28;20042;-76
2023/02/13 00:52:38;;;;;;;8.93;6.32;;;;;;;;;;4992023;28;20042;-76
2023/02/13 00:55:04;;;;;;;7.38;6.32;;;;;;;;;;4971541;28;20057;-75
2023/02/13 00:57:30;;;;;;;13.35;5.75;;;;;;;;;;4989351;28;20104;-76
2023/02/13 00:59:57;;;;;;;8.45;6.00;;;;;;;;;;4972153;28;20408;-77
2023/02/13 01:02:23;;;;;;;6.35;5.75;;;;;;;;;;4989402;28;20413;-75
2023/02/13 01:04:49;;;;;;;11.75;7.15;;;;;;;;;;4971717;28;20037;-76
2023/02/13 01:07:15;;;;;;;5.65;4.95;;;;;;;;;;4989167;28;20038;-76
2023/02/13 01:09:43;;;;;;;4.20;3.90;;;;;;;;;;4971673;28;20038;-75
2023/02/13 01:12:09;;;;;;;7.07;5.18;;;;;;;;;;4988998;28;20060;-75
2023/02/13 01:14:35;;;;;;;5.95;5.38;;;;;;;;;;4987734;28;20038;-77
2023/02/13 01:17:01;;;;;;;19.92;6.07;;;;;;;;;;4955707;28;20089;-77
2023/02/13 01:19:28;;;;;;;5.22;4.80;;;;;;;;;;4970891;28;20617;-76
2023/02/13 01:21:54;;;;;;;5.97;4.18;;;;;;;;;;4988970;28;20417;-77
2023/02/13 01:24:20;;;;;;;11.07;6.32;;;;;;;;;;4988931;28;20030;-76
2023/02/13 01:26:46;;;;;;;3.65;3.35;;;;;;;;;;4987398;28;20045;-75
2023/02/13 01:29:12;;;;;;;7.63;5.43;;;;;;;;;;4955438;28;20034;-76
2023/02/13 01:31:39;;;;;;;9.63;5.28;;;;;;;;;;4987725;28;20040;-76
2023/02/13 01:34:05;;;;;;;2.78;2.58;;;;;;;;;;4988992;28;20041;-76
2023/02/13 01:36:31;;;;;;;6.35;4.35;;;;;;;;;;4991018;28;20044;-78
2023/02/13 01:38:57;;;;;;;5.55;5.05;;;;;;;;;;5008741;28;20048;-76
2023/02/13 01:41:24;;;;;;;6.07;4.75;;;;;;;;;;4991041;28;20034;-74
2023/02/13 01:43:53;;;;;;;8.65;5.65;;;;;;;;;;5008468;28;20496;-75
2023/02/13 01:46:36;;;;;;;9.27;5.82;;;;;;;;;;4974675;28;20030;-78
2023/02/13 01:49:17;;;;;;;8.57;4.53;;;;;;;;;;5008414;28;20049;-77
2023/02/13 01:51:43;;;;;;;4.75;4.35;;;;;;;;;;4990492;28;20030;-78
2023/02/13 01:54:11;;;;;;;6.85;5.78;;;;;;;;;;5008350;28;20061;-78
2023/02/13 01:56:39;;;;;;;9.70;5.35;;;;;;;;;;4974443;28;20037;-77
2023/02/13 01:59:08;;;;;;;7.93;5.20;;;;;;;;;;4991043;28;20038;-77
2023/02/13 02:01:35;;;;;;;7.25;5.78;;;;;;;;;;4974036;28;20092;-76
2023/02/13 02:04:06;;;;;;;8.50;4.13;;;;;;;;;;4974274;28;20511;-77
2023/02/13 02:06:34;;;;;;;7.20;4.90;;;;;;;;;;4988634;28;20137;-77
2023/02/13 02:09:01;;;;;;;9.80;5.50;;;;;;;;;;4991273;28;20404;-77
2023/02/13 02:11:35;;;;;;;8.50;6.80;;;;;;;;;;4975051;28;20048;-77
2023/02/13 02:14:03;;;;;;;11.82;4.55;;;;;;;;;;4974250;28;20049;-76
2023/02/13 02:16:52;;;;;;;9.18;7.80;;;;;;;;;;4980071;28;20540;-76
2023/02/13 02:19:23;;;;;;;8.30;6.80;;;;;;;;;;4974975;28;20037;-77
2023/02/13 02:21:55;;;;;;;7.32;6.60;;;;;;;;;;4974650;28;20022;-77
2023/02/13 02:24:34;;;;;;;6.63;4.80;;;;;;;;;;4991095;28;20452;-76
2023/02/13 02:27:05;;;;;;;5.63;5.00;;;;;;;;;;4974856;28;20413;-77
2023/02/13 02:29:56;;;;;;;6.53;5.55;;;;;;;;;;4988879;28;20038;-76
2023/02/13 02:32:28;;;;;;;4.15;3.83;;;;;;;;;;4977080;28;20040;-76
2023/02/13 02:35:01;;;;;;;5.65;5.20;;;;;;;;;;4975790;28;20049;-76
2023/02/13 02:37:36;;;;;;;8.82;7.93;;;;;;;;;;4978688;28;20030;-77
2023/02/13 02:40:05;;;;;;;7.40;5.90;;;;;;;;;;4978376;28;20483;-76
2023/02/13 02:42:33;;;;;;;;;;;;;;;;;;4998389;28;20044;-76
2023/02/13 02:45:11;;;;;;;6.32;5.25;;;;;;;;;;4999348;28;19909;-77
2023/02/13 02:50:52;;;;;;;5.05;3.55;;;;;;;;;;4992574;28;20034;-78
2023/02/13 02:53:32;;;;;;;6.50;5.68;;;;;;;;;;4960675;28;20333;-77
2023/02/13 02:56:05;;;;;;;8.60;5.32;;;;;;;;;;4976762;28;20694;-79
2023/02/13 03:06:51;;;;;;;10.20;6.85;;;;;;;;;;4993800;28;20677;-78
2023/02/13 03:14:53;;;;;;;6.35;5.45;;;;;;;;;;5010463;28;20038;-77
2023/02/13 03:23:01;;;;;;;7.13;5.25;;;;;;;;;;4992090;28;20103;-78
2023/02/13 03:25:34;;;;;;;8.20;5.93;;;;;;;;;;5011224;28;20052;-79
2023/02/13 03:30:50;;;;;;;5.55;4.03;;;;;;;;;;5005941;28;20057;-80
2023/02/13 03:33:25;;;;;;;9.40;6.47;;;;;;;;;;4992109;28;20045;-78
2023/02/13 03:38:42;;;;;;;3.63;3.35;;;;;;;;;;4995087;28;20129;-80
2023/02/13 03:41:18;;;;;;;4.22;3.83;;;;;;;;;;4997609;28;20065;-80
2023/02/13 03:44:04;;;;;;;5.43;4.93;;;;;;;;;;4995433;28;20029;-77
2023/02/13 03:46:31;;;;;;;4.53;4.15;;;;;;;;;;4977905;28;20041;-79
2023/02/13 03:51:43;;;;;;;3.83;3.35;;;;;;;;;;4981342;28;20072;-79
2023/02/13 03:54:16;;;;;;;5.38;4.30;;;;;;;;;;4991010;28;20046;-77
2023/02/13 03:59:28;;;;;;;5.88;4.75;;;;;;;;;;4990516;28;20061;-78
2023/02/13 04:01:54;;;;;;;8.00;7.13;;;;;;;;;;4992851;28;20030;-77
2023/02/13 04:04:22;;;;;;;11.07;5.93;;;;;;;;;;5001695;28;20030;-78
2023/02/13 04:06:59;;;;;;;5.82;4.60;;;;;;;;;;4986275;28;20092;-78
2023/02/13 04:09:25;;;;;;;3.22;2.75;;;;;;;;;;4987148;28;20520;-76
2023/02/13 04:11:55;;;;;;;4.25;3.85;;;;;;;;;;4996098;28;20034;-78
2023/02/13 04:14:25;;;;;;;5.82;3.92;;;;;;;;;;4986033;28;20038;-78
2023/02/13 04:16:52;;;;;;;6.82;4.47;;;;;;;;;;4967675;28;20513;-78
2023/02/13 04:19:17;;;;;;;5.90;4.10;;;;;;;;;;4989747;28;20042;-79
2023/02/13 04:21:43;;;;;;;6.80;5.00;;;;;;;;;;4991106;28;20413;-78
2023/02/13 04:24:09;;;;;;;8.23;5.43;;;;;;;;;;4991600;28;20508;-78
2023/02/13 04:26:36;;;;;;;4.90;3.95;;;;;;;;;;4989725;28;20041;-78
2023/02/13 04:29:02;;;;;;;3.90;3.60;;;;;;;;;;4984864;28;20065;-79
2023/02/13 04:31:28;;;;;;;5.40;3.75;;;;;;;;;;4985670;28;20054;-78
2023/02/13 04:33:54;;;;;;;4.75;4.13;;;;;;;;;;4972969;28;20085;-79
2023/02/13 04:36:20;;;;;;;3.25;3.05;;;;;;;;;;4991182;28;20037;-79
2023/02/13 04:38:46;;;;;;;5.22;4.05;;;;;;;;;;4987440;28;20030;-78
2023/02/13 04:41:12;;;;;;;5.57;4.38;;;;;;;;;;4989868;28;20030;-78
2023/02/13 04:43:38;;;;;;;3.92;3.30;;;;;;;;;;4989079;28;20512;-79
2023/02/13 04:46:04;;;;;;;4.63;3.88;;;;;;;;;;4988352;28;20046;-77
2023/02/13 04:48:30;;;;;;;7.05;4.50;;;;;;;;;;4988665;28;20554;-76
2023/02/13 04:50:56;;;;;;;3.67;3.38;;;;;;;;;;4989129;28;20374;-76
2023/02/13 04:53:22;;;;;;;6.47;3.97;;;;;;;;;;4988370;28;20073;-77
2023/02/13 04:55:48;;;;;;;5.60;4.43;;;;;;;;;;4940502;28;20054;-77
2023/02/13 04:58:14;;;;;;;6.38;4.70;;;;;;;;;;4972828;28;20034;-77
2023/02/13 05:00:39;;;;;;;5.38;3.78;;;;;;;;;;4988904;28;20030;-77
2023/02/13 05:03:06;;;;;;;3.60;3.30;;;;;;;;;;4990184;28;20034;-76
2023/02/13 05:05:33;;;;;;;6.60;3.10;;;;;;;;;;4972693;28;20041;-76
2023/02/13 05:07:59;;;;;;;3.75;3.28;;;;;;;;;;4989979;28;20034;-76
2023/02/13 05:10:25;;;;;;;4.10;3.80;;;;;;;;;;4988560;28;20137;-76
2023/02/13 05:12:51;;;;;;;2.42;2.33;;;;;;;;;;4987769;28;20050;-76
2023/02/13 05:15:17;;;;;;;5.97;2.75;;;;;;;;;;4988728;28;20129;-76
2023/02/13 05:17:43;;;;;;;5.65;3.85;;;;;;;;;;4990048;28;20122;-77
2023/02/13 05:20:09;;;;;;;6.50;3.67;;;;;;;;;;4972616;28;20037;-77
2023/02/13 05:25:20;;;;;;;4.53;3.75;;;;;;;;;;4990585;28;20053;-77
2023/02/13 05:27:46;;;;;;;6.55;3.92;;;;;;;;;;4989416;28;20042;-76
2023/02/13 05:30:12;;;;;;;5.28;4.55;;;;;;;;;;4973378;28;20034;-76
2023/02/13 05:32:41;;;;;;;7.68;3.35;;;;;;;;;;4975948;28;20501;-77
2023/02/13 05:35:07;;;;;;;3.13;2.92;;;;;;;;;;4990622;28;20058;-77
2023/02/13 05:37:33;;;;;;;3.88;3.53;;;;;;;;;;5002433;28;20038;-83
2023/02/13 05:39:59;;;;;;;4.10;2.75;;;;;;;;;;5009958;28;20053;-83
2023/02/13 05:42:25;;;;;;;5.75;3.25;;;;;;;;;;5008234;28;20141;-82
2023/02/13 05:44:51;;;;;;;4.50;3.05;;;;;;;;;;5008590;28;20042;-83
2023/02/13 05:47:17;;;;;;;3.28;2.88;;;;;;;;;;5008662;28;20042;-85
2023/02/13 05:49:43;;;;;;;3.10;2.60;;;;;;;;;;4999958;28;20768;-83
2023/02/13 05:52:09;;;;;;;4.55;3.25;;;;;;;;;;5002992;28;20046;-82
2023/02/13 05:54:37;;;;;;;4.20;3.80;;;;;;;;;;5010948;28;20219;-82
2023/02/13 05:57:03;;;;;;;3.45;3.15;;;;;;;;;;5034350;28;20500;-81
2023/02/13 05:59:29;;;;;;;7.82;4.55;;;;;;;;;;5028118;28;20040;-81
2023/02/13 06:01:55;;;;;;;4.95;3.83;;;;;;;;;;5036597;28;20037;-84
2023/02/13 06:04:21;;;;;;;5.55;4.68;;;;;;;;;;5006642;28;20036;-79
2023/02/13 06:06:47;;;;;;;2.78;2.65;;;;;;;;;;5015309;28;20108;-79
2023/02/13 06:09:14;;;;;;;13.10;3.30;;;;;;;;;;5008248;28;20054;-84
2023/02/13 06:11:40;;;;;;;5.30;3.17;;;;;;;;;;5037592;28;20029;-81
2023/02/13 06:14:06;;;;;;;2.60;2.40;;;;;;;;;;5039484;28;20041;-81
2023/02/13 06:16:33;;;;;;;3.97;3.60;;;;;;;;;;5025770;28;20037;-81
2023/02/13 06:18:59;;;;;;;4.80;3.83;;;;;;;;;;5038045;28;20044;-80
2023/02/13 06:21:25;;;;;;;3.83;3.47;;;;;;;;;;5006295;28;20066;-79
2023/02/13 06:23:51;;;;;;;2.70;2.30;;;;;;;;;;4979080;28;20061;-78
2023/02/13 06:26:18;;;;;;;3.70;3.40;;;;;;;;;;5012456;28;20084;-79
2023/02/13 06:28:44;;;;;;;6.15;3.17;;;;;;;;;;5015320;28;21003;-80
2023/02/13 06:31:10;;;;;;;7.97;3.33;;;;;;;;;;4995864;28;20038;-79
2023/02/13 06:33:36;;;;;;;5.50;4.47;;;;;;;;;;4992699;28;20564;-76
2023/02/13 06:36:02;;;;;;;2.22;1.95;;;;;;;;;;4994222;28;20900;-78
2023/02/13 06:38:28;;;;;;;4.45;4.05;;;;;;;;;;5012002;28;20448;-78
2023/02/13 06:40:57;;;;;;;6.47;4.68;;;;;;;;;;5015184;28;20034;-83
2023/02/13 06:43:23;;;;;;;13.23;3.38;;;;;;;;;;4979590;28;20033;-78
2023/02/13 06:45:50;;;;;;;5.90;4.05;;;;;;;;;;5001704;28;20038;-78
2023/02/13 06:48:16;;;;;;;6.70;5.28;;;;;;;;;;5024166;28;20030;-79
2023/02/13 06:50:42;;;;;;;7.57;6.00;;;;;;;;;;5024742;28;20041;-78
2023/02/13 06:53:08;;;;;;;8.15;4.60;;;;;;;;;;5017231;28;20053;-78
2023/02/13 06:55:35;;;;;;;4.60;3.80;;;;;;;;;;5002191;28;20058;-76
2023/02/13 06:58:01;;;;;;;9.20;6.28;;;;;;;;;;5004996;28;20065;-77
2023/02/13 07:00:27;;;;;;;10.20;5.60;;;;;;;;;;5004509;28;20070;-77
2023/02/13 07:02:53;;;;;;;6.75;4.65;;;;;;;;;;4988545;28;20049;-80
2023/02/13 07:05:20;;;;;;;4.93;4.32;;;;;;;;;;4995957;28;20026;-78
2023/02/13 07:07:46;;;;;;;7.75;5.90;;;;;;;;;;4995729;28;20045;-78
2023/02/13 07:10:12;;;;;;;5.93;4.25;;;;;;;;;;4994579;28;20465;-79
2023/02/13 07:12:38;;;;;;;5.80;4.80;;;;;;;;;;4994574;28;20065;-79
2023/02/13 07:15:04;;;;;;;6.82;5.20;;;;;;;;;;4994805;28;20031;-76
2023/02/13 07:17:31;;;;;;;5.20;3.88;;;;;;;;;;4992670;28;20054;-80
2023/02/13 07:19:57;;;;;;;7.13;5.45;;;;;;;;;;4993455;28;20086;-79
2023/02/13 07:22:23;;;;;;;2.17;2.08;;;;;;;;;;4992898;28;20081;-79
2023/02/13 07:24:49;;;;;;;7.28;4.78;;;;;;;;;;4991049;28;20038;-78
2023/02/13 07:27:15;;;;;;;4.55;4.07;;;;;;;;;;4986817;28;20433;-78
2023/02/13 07:29:41;;;;;;;5.10;3.78;;;;;;;;;;4985867;28;20038;-78
2023/02/13 07:32:07;;;;;;;10.70;3.92;;;;;;;;;;4990622;28;20031;-79
2023/02/13 07:34:33;;;;;;;3.38;3.08;;;;;;;;;;4975804;28;20038;-80
2023/02/13 07:37:00;;;;;;;6.45;5.32;;;;;;;;;;4991405;28;20097;-80
2023/02/13 07:39:25;;;;;;;6.43;4.60;;;;;;;;;;4991802;28;20046;-80
2023/02/13 07:41:52;;;;;;;2.85;2.65;;;;;;;;;;4991297;28;20034;-80
2023/02/13 07:44:21;;;;;;;7.90;4.47;;;;;;;;;;4978941;28;20126;-80
2023/02/13 07:46:47;;;;;;;5.43;4.55;;;;;;;;;;4992770;28;20045;-79
2023/02/13 07:49:13;;;;;;;5.18;4.35;;;;;;;;;;4989909;28;20089;-78
2023/02/13 07:51:39;;;;;;;6.90;4.93;;;;;;;;;;4993153;28;20113;-79
2023/02/13 07:54:05;;;;;;;8.23;4.38;;;;;;;;;;4975682;28;20061;-79
2023/02/13 07:56:31;;;;;;;5.10;4.25;;;;;;;;;;4990108;28;20033;-81
2023/02/13 07:58:57;;;;;;;2.40;2.30;;;;;;;;;;5020084;28;20076;-81
2023/02/13 08:01:23;;;;;;;4.88;4.47;;;;;;;;;;5022023;28;20033;-81
2023/02/13 08:03:50;;;;;;;12.02;6.63;;;;;;;;;;5024248;28;20021;-81
2023/02/13 08:06:16;;;;;;;5.80;4.95;;;;;;;;;;5034585;28;20064;-82
2023/02/13 08:08:42;;;;;;;6.93;5.60;;;;;;;;;;5027659;28;20053;-81
2023/02/13 08:14:00;;;;;;;7.35;5.78;;;;;;;;;;5013302;28;20131;-81
2023/02/13 08:16:26;;;;;;;2.90;2.70;;;;;;;;;;5022494;28;20089;-81
2023/02/13 08:18:52;;;;;;;7.35;4.65;;;;;;;;;;5019756;28;20054;-80
2023/02/13 08:21:19;;;;;;;6.47;4.38;;;;;;;;;;5024535;28;20029;-81
2023/02/13 08:23:45;;;;;;;4.95;4.55;;;;;;;;;;4999623;28;20030;-79
2023/02/13 08:26:11;;;;;;;3.22;3.03;;;;;;;;;;5014115;28;20093;-81
2023/02/13 08:28:37;;;;;;;7.38;5.88;;;;;;;;;;5014682;28;20041;-79
2023/02/13 08:31:08;;;;;;;6.13;3.42;;;;;;;;;;5011960;28;20097;-79
2023/02/13 08:33:34;;;;;;;4.68;4.28;;;;;;;;;;5012597;28;20081;-81
2023/02/13 08:36:02;;;;;;;4.00;3.10;;;;;;;;;;5014037;28;20030;-80
2023/02/13 08:38:28;;;;;;;6.00;4.97;;;;;;;;;;4973787;28;20045;-81
2023/02/13 08:40:55;;;;;;;6.82;5.65;;;;;;;;;;4974994;28;20701;-79
2023/02/13 08:43:21;;;;;;;6.47;4.03;;;;;;;;;;5009154;28;20413;-81
2023/02/13 08:45:47;;;;;;;3.95;3.70;;;;;;;;;;5009685;28;20033;-81
2023/02/13 08:48:13;;;;;;;6.15;4.68;;;;;;;;;;5009762;28;20030;-79
2023/02/13 08:50:39;;;;;;;4.63;4.22;;;;;;;;;;5007436;28;20075;-81
2023/02/13 08:53:05;;;;;;;7.03;5.35;;;;;;;;;;5005805;28;20037;-76
2023/02/13 08:55:31;;;;;;;5.60;3.92;;;;;;;;;;5010167;28;20057;-81
2023/02/13 08:58:01;;;;;;;3.85;3.22;;;;;;;;;;4993748;28;20041;-81
2023/02/13 09:00:27;;;;;;;3.25;3.03;;;;;;;;;;5009998;28;20037;-80
2023/02/13 09:02:53;;;;;;;9.90;6.65;;;;;;;;;;5008844;28;20032;-80
2023/02/13 09:05:19;;;;;;;6.47;5.35;;;;;;;;;;4996852;28;20695;-80
2023/02/13 09:07:45;;;;;;;6.55;4.45;;;;;;;;;;4977780;28;20042;-78
2023/02/13 09:10:11;;;;;;;3.88;3.47;;;;;;;;;;5001817;28;20512;-80
2023/02/13 09:12:37;;;;;;;4.45;4.10;;;;;;;;;;5008555;28;20037;-81
2023/02/13 09:15:04;;;;;;;5.85;5.35;;;;;;;;;;5007706;28;20714;-81
2023/02/13 09:17:30;;;;;;;15.88;5.55;;;;;;;;;;5007438;28;20128;-80
2023/02/13 09:19:56;;;;;;;6.63;4.70;;;;;;;;;;4989429;28;20512;-81
2023/02/13 09:22:22;;;;;;;6.15;3.55;;;;;;;;;;5007237;28;20038;-80
2023/02/13 09:24:48;;;;;;;6.45;5.70;;;;;;;;;;5006219;28;20089;-81
2023/02/13 09:27:14;;;;;;;6.13;5.55;;;;;;;;;;5004868;28;20456;-79
2023/02/13 09:29:41;;;;;;;4.43;4.07;;;;;;;;;;5016670;28;20040;-81
2023/02/13 09:32:07;;;;;;;5.03;4.63;;;;;;;;;;4992020;28;20425;-79
2023/02/13 09:34:33;;;;;;;3.28;3.08;;;;;;;;;;4991063;28;20030;-79
2023/02/13 09:36:59;;;;;;;2.70;2.50;;;;;;;;;;5009141;28;20034;-79
2023/02/13 09:39:25;;;;;;;6.85;4.95;;;;;;;;;;4972588;28;20049;-77
2023/02/13 09:41:51;;;;;;;9.98;3.50;;;;;;;;;;4994913;28;20057;-81
2023/02/13 09:44:32;;;;;;;9.88;4.72;;;;;;;;;;5000260;28;20071;-82
2023/02/13 09:47:00;;;;;;;3.92;3.63;;;;;;;;;;4996524;28;20030;-80
2023/02/13 09:49:27;;;;;;;4.95;2.72;;;;;;;;;;5015553;28;20034;-80
2023/02/13 09:51:53;;;;;;;11.05;6.45;;;;;;;;;;4980350;28;20072;-83
2023/02/13 09:54:19;;;;;;;8.77;5.97;;;;;;;;;;5023244;28;20049;-83
2023/02/13 09:56:59;;;;;;;5.47;4.47;;;;;;;;;;5022492;28;20037;-81
2023/02/13 09:59:37;;;;;;;7.78;5.53;;;;;;;;;;5014192;28;20046;-84
2023/02/13 10:02:27;;;;;;;7.90;5.72;;;;;;;;;;5017939;28;20030;-82
2023/02/13 10:04:59;;;;;;;7.72;5.45;;;;;;;;;;4994347;28;20037;-82
2023/02/13 10:07:38;;;;;;;3.47;3.20;;;;;;;;;;5016469;28;20053;-81
2023/02/13 10:10:04;;;;;;;6.13;5.25;;;;;;;;;;4983892;28;20168;-82
2023/02/13 10:12:48;;;;;;;4.07;3.67;;;;;;;;;;5012487;28;20046;-83
2023/02/13 10:15:36;;;;;;;6.35;3.95;;;;;;;;;;4994717;28;20052;-81
2023/02/13 10:18:03;;;;;;;7.35;5.55;;;;;;;;;;5017930;28;20045;-81
2023/02/13 10:20:32;;;;;;;6.22;5.03;;;;;;;;;;5018072;28;20034;-83
2023/02/13 10:23:24;;;;;;;3.85;2.95;;;;;;;;;;4990180;28;20062;-85
2023/02/13 10:26:08;;;;;;;8.82;5.18;;;;;;;;;;5007386;28;20044;-82
2023/02/13 10:28:38;;;;;;;2.90;2.75;;;;;;;;;;5027553;28;20040;-84
2023/02/13 10:31:06;;;;;;;9.27;5.30;;;;;;;;;;5028868;28;20034;-85
2023/02/13 10:33:51;;;;;;;5.63;4.95;;;;;;;;;;4987132;28;20046;-82
2023/02/13 10:36:18;;;;;;;4.80;4.43;;;;;;;;;;5001477;28;20038;-81
2023/02/13 10:38:51;;;;;;;5.47;4.53;;;;;;;;;;4991310;28;20044;-80
2023/02/13 10:41:37;;;;;;;4.35;3.88;;;;;;;;;;5004959;28;20067;-84
2023/02/13 10:44:15;;;;;;;5.72;5.22;;;;;;;;;;4977919;28;20116;-83
2023/02/13 10:46:54;;;;;;;5.50;4.65;;;;;;;;;;5025753;28;20078;-82
2023/02/13 10:49:20;;;;;;;5.95;4.72;;;;;;;;;;5017760;28;20022;-82
2023/02/13 10:52:05;;;;;;;4.78;4.03;;;;;;;;;;5009427;28;20034;-82
2023/02/13 10:54:35;;;;;;;8.57;3.40;;;;;;;;;;5017536;28;20072;-80
2023/02/13 10:57:01;;;;;;;4.20;3.90;;;;;;;;;;5013228;28;20034;-83
2023/02/13 10:59:30;;;;;;;7.88;4.13;;;;;;;;;;5012227;28;20053;-83
2023/02/13 11:01:56;;;;;;;4.07;3.78;;;;;;;;;;5009075;28;20142;-83
2023/02/13 11:04:23;;;;;;;3.25;3.05;;;;;;;;;;5036981;28;20038;-83
2023/02/13 11:06:57;;;;;;;2.15;2.05;;;;;;;;;;5011032;28;20029;-81
2023/02/13 11:09:23;;;;;;;5.03;4.60;;;;;;;;;;5009655;28;20034;-82
2023/02/13 11:11:49;;;;;;;4.15;3.30;;;;;;;;;;5018276;28;20563;-79
2023/02/13 11:14:15;;;;;;;3.92;3.60;;;;;;;;;;4970233;28;20088;-84
2023/02/13 11:16:44;;;;;;;4.50;3.70;;;;;;;;;;5008132;28;20026;-83
2023/02/13 11:19:17;;;;;;;3.22;2.95;;;;;;;;;;4998810;28;20038;-83
2023/02/13 11:21:43;;;;;;;3.65;3.35;;;;;;;;;;5002403;28;20037;-81
2023/02/13 11:24:16;;;;;;;7.47;5.50;;;;;;;;;;5011579;28;20080;-79
2023/02/13 11:26:42;;;;;;;3.35;3.03;;;;;;;;;;4994241;28;20030;-80
2023/02/13 11:29:20;;;;;;;4.65;4.35;;;;;;;;;;4976749;28;20038;-82
2023/02/13 11:31:46;;;;;;;8.27;3.83;;;;;;;;;;4991744;28;20057;-80
2023/02/13 11:34:21;;;;;;;6.22;2.88;;;;;;;;;;4997079;28;20042;-81
2023/02/13 11:36:50;;;;;;;4.90;4.45;;;;;;;;;;5000174;28;20045;-80
2023/02/13 11:39:17;;;;;;;3.40;3.20;;;;;;;;;;4978457;28;20037;-80
2023/02/13 11:41:43;;;;;;;4.20;3.83;;;;;;;;;;4995537;28;20076;-81
2023/02/13 11:44:25;;;;;;;4.43;3.92;;;;;;;;;;4996899;28;20125;-80
2023/02/13 11:46:52;;;;;;;3.25;2.95;;;;;;;;;;5021559;28;20044;-79
2023/02/13 11:49:21;;;;;;;6.57;4.93;;;;;;;;;;5006485;28;20018;-81
2023/02/13 11:51:50;;;;;;;3.35;3.15;;;;;;;;;;5006233;28;20060;-80
2023/02/13 11:54:22;;;;;;;4.97;4.45;;;;;;;;;;5023719;28;20069;-81
2023/02/13 11:56:49;;;;;;;6.75;4.82;;;;;;;;;;5011849;28;20034;-83
2023/02/13 11:59:15;;;;;;;4.90;4.38;;;;;;;;;;4982258;28;20041;-81
2023/02/13 12:01:41;;;;;;;4.88;4.20;;;;;;;;;;4993966;28;20069;-81
2023/02/13 12:04:15;;;;;;;5.35;4.25;;;;;;;;;;5009746;28;20041;-79
2023/02/13 12:06:56;;;;;;;4.53;4.13;;;;;;;;;;5004523;28;20065;-82
2023/02/13 12:09:22;;;;;;;7.85;4.90;;;;;;;;;;4991238;28;20034;-83
2023/02/13 12:11:49;;;;;;;10.13;5.55;;;;;;;;;;5021690;28;20124;-82
2023/02/13 12:14:22;;;;;;;5.30;4.72;;;;;;;;;;4996553;28;20044;-80
2023/02/13 12:17:02;;;;;;;5.57;5.15;;;;;;;;;;4993475;28;20727;-81
2023/02/13 12:19:34;;;;;;;6.80;5.20;;;;;;;;;;4983597;28;20089;-80
2023/02/13 12:22:33;;;;;;;8.73;5.75;;;;;;;;;;5010892;28;20038;-81
2023/02/13 12:25:17;;;;;;;7.00;6.03;;;;;;;;;;4965739;28;20065;-81
2023/02/13 12:27:45;;;;;;;4.82;4.50;;;;;;;;;;5021820;28;20037;-83
2023/02/13 12:30:11;;;;;;;5.68;5.07;;;;;;;;;;5008479;28;20124;-80
2023/02/13 12:32:57;;;;;;;6.88;5.68;;;;;;;;;;5002108;28;20046;-84
2023/02/13 12:35:23;;;;;;;5.97;5.38;;;;;;;;;;5014221;28;20540;-83
2023/02/13 12:37:52;;;;;;;6.30;5.80;;;;;;;;;;5007035;28;20026;-82
2023/02/13 12:40:18;;;;;;;3.17;2.97;;;;;;;;;;5011015;28;20030;-82
2023/02/13 12:42:47;;;;;;;11.43;5.95;;;;;;;;;;5018246;28;20049;-83
2023/02/13 12:45:22;;;;;;;6.82;5.60;;;;;;;;;;5020104;28;20036;-82
2023/02/13 12:48:06;;;;;;;4.65;3.70;;;;;;;;;;5021087;28;20038;-84
2023/02/13 12:50:41;;;;;;;4.75;4.40;;;;;;;;;;4995303;28;20038;-83
2023/02/13 12:53:20;;;;;;;4.75;4.28;;;;;;;;;;5024124;28;20034;-82
2023/02/13 12:55:49;;;;;;;7.15;4.18;;;;;;;;;;5024665;28;20049;-82
2023/02/13 12:58:33;;;;;;;4.80;4.50;;;;;;;;;;4982226;28;20041;-84
2023/02/13 13:01:06;;;;;;;9.23;5.75;;;;;;;;;;5007233;28;20042;-83
2023/02/13 13:03:34;;;;;;;8.40;6.72;;;;;;;;;;5004927;28;20041;-84
2023/02/13 13:06:04;;;;;;;7.43;5.07;;;;;;;;;;5016605;28;20069;-83
2023/02/13 13:08:37;;;;;;;6.45;5.55;;;;;;;;;;5007321;28;20038;-82
2023/02/13 13:11:12;;;;;;;9.23;6.32;;;;;;;;;;5010492;28;20036;-79
2023/02/13 13:13:38;;;;;;;6.40;5.32;;;;;;;;;;5008341;28;20080;-79
2023/02/13 13:16:16;;;;;;;5.13;4.15;;;;;;;;;;4991290;28;20044;-78
2023/02/13 13:18:47;;;;;;;9.13;6.20;;;;;;;;;;5011859;28;20034;-81
2023/02/13 13:21:13;;;;;;;8.70;5.23;;;;;;;;;;4993408;28;20041;-78
2023/02/13 13:23:44;;;;;;;8.52;6.10;;;;;;;;;;5009323;28;20277;-78
2023/02/13 13:26:16;;;;;;;6.03;5.43;;;;;;;;;;5008465;28;20030;-78
2023/02/13 13:28:43;;;;;;;6.95;5.47;;;;;;;;;;4992642;28;20129;-79
2023/02/13 13:31:09;;;;;;;5.82;5.32;;;;;;;;;;5004768;28;20038;-81
2023/02/13 13:33:35;;;;;;;3.30;3.13;;;;;;;;;;5017682;28;20061;-83
2023/02/13 13:36:01;;;;;;;7.88;3.83;;;;;;;;;;5012241;28;20504;-80
2023/02/13 13:38:30;;;;;;;5.93;5.35;;;;;;;;;;5018508;28;20054;-84
2023/02/13 13:41:17;;;;;;;5.40;4.78;;;;;;;;;;5014315;28;20098;-84
2023/02/13 13:43:53;;;;;;;5.55;5.05;;;;;;;;;;5000332;28;20132;-84
2023/02/13 13:46:22;;;;;;;13.00;6.25;;;;;;;;;;4974278;28;20065;-81
2023/02/13 13:49:00;;;;;;;6.68;5.60;;;;;;;;;;5018100;28;20073;-82
2023/02/13 13:51:26;;;;;;;7.82;5.82;;;;;;;;;;5012326;28;20029;-82
2023/02/13 13:54:00;;;;;;;10.20;6.68;;;;;;;;;;5022019;28;20065;-84
2023/02/13 13:56:46;;;;;;;13.93;7.60;;;;;;;;;;4995466;28;20888;-80
2023/02/13 13:59:16;;;;;;;35.08;9.38;;;;;;;;;;5012776;28;20034;-81
2023/02/13 14:01:42;;;;;;;8.68;6.70;;;;;;;;;;4981139;28;20417;-81
2023/02/13 14:04:27;;;;;;;11.20;8.65;;;;;;;;;;5007239;28;20042;-81
2023/02/13 14:06:58;;;;;;;7.47;6.18;;;;;;;;;;4997198;28;20041;-82
2023/02/13 14:09:38;;;;;;;7.45;5.80;;;;;;;;;;5022477;28;20034;-80
2023/02/13 14:12:23;;;;;;;6.05;4.72;;;;;;;;;;4993092;28;20061;-81
2023/02/13 14:14:49;;;;;;;5.57;4.93;;;;;;;;;;4993100;28;20034;-81
2023/02/13 14:17:15;;;;;;;7.43;4.88;;;;;;;;;;4993753;28;20042;-82
2023/02/13 14:19:42;;;;;;;5.10;4.60;;;;;;;;;;4980459;28;20425;-81
2023/02/13 14:22:18;;;;;;;3.88;3.50;;;;;;;;;;4975782;28;20088;-80
2023/02/13 14:24:50;;;;;;;5.10;4.25;;;;;;;;;;4992319;28;20085;-78
2023/02/13 14:27:36;;;;;;;2.47;2.22;;;;;;;;;;4982783;28;20052;-79
2023/02/13 14:30:02;;;;;;;5.10;4.70;;;;;;;;;;4994536;28;20026;-80
2023/02/13 14:32:32;;;;;;;6.25;5.45;;;;;;;;;;5015117;28;20500;-81
2023/02/13 14:35:25;;;;;;;4.97;4.13;;;;;;;;;;4981934;28;20038;-81
2023/02/13 14:37:52;;;;;;;8.35;4.65;;;;;;;;;;5014542;28;20038;-83
2023/02/13 14:40:18;;;;;;;6.13;4.70;;;;;;;;;;4994716;28;20038;-81
2023/02/13 14:42:54;;;;;;;5.15;3.90;;;;;;;;;;4981047;28;20104;-78
2023/02/13 14:45:21;;;;;;;3.92;2.63;;;;;;;;;;5010573;28;20161;-79
2023/02/13 14:47:52;;;;;;;2.70;2.53;;;;;;;;;;4990373;28;20034;-80
2023/02/13 14:50:21;;;;;;;3.95;3.65;;;;;;;;;;4977432;28;20080;-80
2023/02/13 14:52:47;;;;;;;2.45;2.25;;;;;;;;;;4994005;28;20054;-78
2023/02/13 14:55:15;;;;;;;6.47;3.40;;;;;;;;;;4993123;28;20046;-81
2023/02/13 14:57:42;;;;;;;3.50;3.30;;;;;;;;;;4989831;28;20103;-81
2023/02/13 15:00:14;;;;;;;4.65;3.83;;;;;;;;;;4993262;28;20088;-80
2023/02/13 15:02:40;;;;;;;4.20;3.90;;;;;;;;;;4962876;28;20029;-81
2023/02/13 15:05:13;;;;;;;5.03;3.45;;;;;;;;;;4987559;28;20038;-81
2023/02/13 15:07:49;;;;;;;5.43;2.72;;;;;;;;;;4997339;28;20060;-82
2023/02/13 15:10:25;;;;;;;3.63;3.15;;;;;;;;;;4994288;28;20704;-80
2023/02/13 15:12:57;;;;;;;3.60;3.17;;;;;;;;;;5014804;28;20073;-82
2023/02/13 15:15:24;;;;;;;3.38;2.95;;;;;;;;;;4992478;28;20034;-80
2023/02/13 15:17:52;;;;;;;3.05;2.85;;;;;;;;;;5008545;28;20038;-80
2023/02/13 15:20:21;;;;;;;2.60;2.40;;;;;;;;;;4998232;28;20045;-80
2023/02/13 15:22:47;;;;;;;3.10;2.67;;;;;;;;;;4977842;28;20402;-77
2023/02/13 15:25:24;;;;;;;3.00;2.80;;;;;;;;;;4953762;28;20038;-82
2023/02/13 15:27:52;;;;;;;2.45;2.33;;;;;;;;;;4978908;28;20568;-81
2023/02/13 15:30:19;;;;;;;2.55;2.40;;;;;;;;;;4960303;28;20034;-79
2023/02/13 15:32:52;;;;;;;3.13;2.90;;;;;;;;;;4995397;28;20045;-81
2023/02/13 15:35:22;;;;;;;6.95;4.50;;;;;;;;;;4979087;28;20026;-81